Main page
METAR-TAF:

METAR-TAF

Airports :

Huesca, Spain

Huesca–Pirineos Airport

latitude: 42-04-32N, longitude: 0-18-58W, elevation: 539 m

Current weather observation

The report was made 35 minutes ago, at 01:30 UTC
Wind 8 kt from the East/Northeast, varying between Northeast and East/Southeast
Temperature 17°C
Humidity 63%
Pressure 1018 hPa
Visibility 10 km or more

METAR: LEHC 290130Z AUTO 07008KT 040V110 9999 NCD 17/10 Q1018

Time: 04:05 (02:05 UTC)

Forecast

The report was made 18 hours and 5 minutes ago, at 08:00 UTC
Forecast valid from 28 at 09 UTC to 29 at 09 UTC
Wind 12 kt from the East/Southeast
Visibility 10 km or more
Few clouds at a height of 3000 ft
Temporary
from 28 at 12 UTC to 28 at 21 UTC
Wind 18 kt from the Southeast with gusts up to 28 kt

TAF: LEHC 280800Z 2809/2909 11012KT 9999 FEW030 TX31/2813Z TN18/2906Z TEMPO 2812/2821 13018G28KT

Weather observations and forecasts of more than 4000 airports (METAR and TAF reports).

The available stations are represented by yellow and red dots on the map.

Hover mouse over dot to see the name of the station.

Then click to see weather observations and forecasts.

To change the map : click on the green buttons with a black cross to zoom in, on the green button with a dash to zoom out, or on the green arrows for adjacent maps.


METAR-TAF: